sensor_id;sensor_type;location;lat;lon;timestamp;pressure;altitude;pressure_sealevel;temperature;humidity
50394;BME280;36308;46.312;25.288;2023-04-21T00:00:06;95663.78;;;10.24;54.11
50394;BME280;36308;46.312;25.288;2023-04-21T00:02:34;95666.44;;;10.19;53.43
50394;BME280;36308;46.312;25.288;2023-04-21T00:05:05;95665.91;;;10.22;54.17
50394;BME280;36308;46.312;25.288;2023-04-21T00:07:33;95670.75;;;10.20;53.99
50394;BME280;36308;46.312;25.288;2023-04-21T00:09:59;95677.19;;;10.19;54.09
50394;BME280;36308;46.312;25.288;2023-04-21T00:12:24;95670.19;;;10.18;54.66
50394;BME280;36308;46.312;25.288;2023-04-21T00:14:50;95666.72;;;10.17;55.02
50394;BME280;36308;46.312;25.288;2023-04-21T00:17:15;95665.88;;;10.17;54.62
50394;BME280;36308;46.312;25.288;2023-04-21T00:22:25;95667.47;;;10.12;54.95
50394;BME280;36308;46.312;25.288;2023-04-21T00:24:50;95665.88;;;10.11;55.26
50394;BME280;36308;46.312;25.288;2023-04-21T00:27:16;95663.44;;;10.10;55.69
50394;BME280;36308;46.312;25.288;2023-04-21T00:29:41;95665.59;;;10.08;55.82
50394;BME280;36308;46.312;25.288;2023-04-21T00:32:07;95659.69;;;10.06;55.58
50394;BME280;36308;46.312;25.288;2023-04-21T00:34:35;95670.72;;;10.04;56.07
50394;BME280;36308;46.312;25.288;2023-04-21T00:37:00;95664.50;;;10.04;55.47
50394;BME280;36308;46.312;25.288;2023-04-21T00:39:26;95663.69;;;10.03;56.01
50394;BME280;36308;46.312;25.288;2023-04-21T00:41:51;95667.47;;;10.02;55.40
50394;BME280;36308;46.312;25.288;2023-04-21T00:44:17;95666.94;;;10.00;55.94
50394;BME280;36308;46.312;25.288;2023-04-21T00:46:42;95666.09;;;10.00;56.13
50394;BME280;36308;46.312;25.288;2023-04-21T00:49:08;95662.31;;;9.96;56.14
50394;BME280;36308;46.312;25.288;2023-04-21T00:51:35;95663.94;;;9.97;56.16
50394;BME280;36308;46.312;25.288;2023-04-21T00:54:05;95667.69;;;9.96;56.40
50394;BME280;36308;46.312;25.288;2023-04-21T00:56:33;95663.66;;;9.93;56.28
50394;BME280;36308;46.312;25.288;2023-04-21T00:58:59;95662.59;;;9.94;56.39
50394;BME280;36308;46.312;25.288;2023-04-21T01:01:27;95652.38;;;9.91;55.98
50394;BME280;36308;46.312;25.288;2023-04-21T01:03:57;95653.47;;;9.90;56.89
50394;BME280;36308;46.312;25.288;2023-04-21T01:06:24;95662.56;;;9.89;56.07
50394;BME280;36308;46.312;25.288;2023-04-21T01:08:52;95660.97;;;9.88;55.96
50394;BME280;36308;46.312;25.288;2023-04-21T01:11:19;95653.97;;;9.87;55.90
50394;BME280;36308;46.312;25.288;2023-04-21T01:13:45;95654.50;;;9.84;56.46
50394;BME280;36308;46.312;25.288;2023-04-21T01:16:16;95659.88;;;9.84;56.24
50394;BME280;36308;46.312;25.288;2023-04-21T01:18:43;95658.25;;;9.83;56.42
50394;BME280;36308;46.312;25.288;2023-04-21T01:21:09;95660.38;;;9.81;56.47
50394;BME280;36308;46.312;25.288;2023-04-21T01:23:35;95660.38;;;9.81;56.60
50394;BME280;36308;46.312;25.288;2023-04-21T01:26:01;95669.53;;;9.80;57.09
50394;BME280;36308;46.312;25.288;2023-04-21T01:28:26;95660.91;;;9.78;56.75
50394;BME280;36308;46.312;25.288;2023-04-21T01:30:52;95664.66;;;9.77;56.45
50394;BME280;36308;46.312;25.288;2023-04-21T01:33:18;95663.84;;;9.76;57.32
50394;BME280;36308;46.312;25.288;2023-04-21T01:35:44;95664.09;;;9.75;57.19
50394;BME280;36308;46.312;25.288;2023-04-21T01:38:10;95661.97;;;9.71;57.26
50394;BME280;36308;46.312;25.288;2023-04-21T01:40:37;95668.94;;;9.73;56.79
50394;BME280;36308;46.312;25.288;2023-04-21T01:43:03;95668.63;;;9.69;57.33
50394;BME280;36308;46.312;25.288;2023-04-21T01:45:30;95661.66;;;9.68;57.32
50394;BME280;36308;46.312;25.288;2023-04-21T01:47:55;95663.25;;;9.64;57.55
50394;BME280;36308;46.312;25.288;2023-04-21T01:50:21;95665.16;;;9.63;56.65
50394;BME280;36308;46.312;25.288;2023-04-21T01:52:46;95653.31;;;9.59;57.37
50394;BME280;36308;46.312;25.288;2023-04-21T01:55:12;95657.59;;;9.60;57.11
50394;BME280;36308;46.312;25.288;2023-04-21T01:57:39;95662.97;;;9.60;57.35
50394;BME280;36308;46.312;25.288;2023-04-21T02:00:05;95663.25;;;9.59;57.63
50394;BME280;36308;46.312;25.288;2023-04-21T02:02:31;95662.41;;;9.58;57.97
50394;BME280;36308;46.312;25.288;2023-04-21T02:04:56;95665.38;;;9.57;57.63
50394;BME280;36308;46.312;25.288;2023-04-21T02:07:22;95654.91;;;9.55;57.69
50394;BME280;36308;46.312;25.288;2023-04-21T02:09:48;95654.34;;;9.53;57.70
50394;BME280;36308;46.312;25.288;2023-04-21T02:12:14;95652.69;;;9.47;57.94
50394;BME280;36308;46.312;25.288;2023-04-21T02:14:39;95659.16;;;9.51;57.20
50394;BME280;36308;46.312;25.288;2023-04-21T02:17:05;95654.84;;;9.50;57.63
50394;BME280;36308;46.312;25.288;2023-04-21T02:19:31;95652.44;;;9.48;58.04
50394;BME280;36308;46.312;25.288;2023-04-21T02:21:56;95649.22;;;9.46;58.47
50394;BME280;36308;46.312;25.288;2023-04-21T02:24:22;95643.03;;;9.46;58.35
50394;BME280;36308;46.312;25.288;2023-04-21T02:26:47;95642.22;;;9.45;57.95
50394;BME280;36308;46.312;25.288;2023-04-21T02:29:13;95643.56;;;9.43;57.97
50394;BME280;36308;46.312;25.288;2023-04-21T02:31:38;95634.97;;;9.41;58.67
50394;BME280;36308;46.312;25.288;2023-04-21T02:34:04;95641.13;;;9.41;58.49
50394;BME280;36308;46.312;25.288;2023-04-21T02:36:30;95644.06;;;9.40;58.64
50394;BME280;36308;46.312;25.288;2023-04-21T02:38:56;95639.22;;;9.37;58.77
50394;BME280;36308;46.312;25.288;2023-04-21T02:41:21;95636.00;;;9.35;58.84
50394;BME280;36308;46.312;25.288;2023-04-21T02:43:47;95638.63;;;9.29;58.54
50394;BME280;36308;46.312;25.288;2023-04-21T02:46:13;95634.91;;;9.30;58.25
50394;BME280;36308;46.312;25.288;2023-04-21T02:48:38;95630.03;;;9.27;57.97
50394;BME280;36308;46.312;25.288;2023-04-21T02:51:04;95625.75;;;9.26;57.57
50394;BME280;36308;46.312;25.288;2023-04-21T02:53:30;95636.22;;;9.28;57.90
50394;BME280;36308;46.312;25.288;2023-04-21T02:55:55;95631.13;;;9.26;58.16
50394;BME280;36308;46.312;25.288;2023-04-21T02:58:22;95627.88;;;9.24;57.59
50394;BME280;36308;46.312;25.288;2023-04-21T03:00:48;95630.56;;;9.24;57.39
50394;BME280;36308;46.312;25.288;2023-04-21T03:03:14;95632.16;;;9.25;57.54
50394;BME280;36308;46.312;25.288;2023-04-21T03:05:40;95625.19;;;9.24;57.60
50394;BME280;36308;46.312;25.288;2023-04-21T03:08:05;95629.75;;;9.24;57.87
50394;BME280;36308;46.312;25.288;2023-04-21T03:10:31;95634.03;;;9.25;57.04
50394;BME280;36308;46.312;25.288;2023-04-21T03:12:56;95634.31;;;9.23;57.46
50394;BME280;36308;46.312;25.288;2023-04-21T03:15:22;95634.56;;;9.22;57.28
50394;BME280;36308;46.312;25.288;2023-04-21T03:17:48;95640.19;;;9.20;57.45
50394;BME280;36308;46.312;25.288;2023-04-21T03:20:13;95644.47;;;9.21;57.75
50394;BME280;36308;46.312;25.288;2023-04-21T03:22:40;95648.50;;;9.19;57.96
50394;BME280;36308;46.312;25.288;2023-04-21T03:25:06;95643.34;;;9.12;57.52
50394;BME280;36308;46.312;25.288;2023-04-21T03:27:33;95644.44;;;9.11;57.59
50394;BME280;36308;46.312;25.288;2023-04-21T03:29:59;95643.59;;;9.10;57.70
50394;BME280;36308;46.312;25.288;2023-04-21T03:32:24;95647.63;;;9.08;57.74
50394;BME280;36308;46.312;25.288;2023-04-21T03:34:50;95649.75;;;9.06;57.57
50394;BME280;36308;46.312;25.288;2023-04-21T03:37:16;95651.88;;;9.04;57.43
50394;BME280;36308;46.312;25.288;2023-04-21T03:39:41;95667.16;;;9.03;57.76
50394;BME280;36308;46.312;25.288;2023-04-21T03:42:06;95655.63;;;9.03;58.09
50394;BME280;36308;46.312;25.288;2023-04-21T03:44:32;95653.22;;;9.01;57.77
50394;BME280;36308;46.312;25.288;2023-04-21T03:46:57;95666.84;;;9.00;58.23
50394;BME280;36308;46.312;25.288;2023-04-21T03:49:23;95658.25;;;8.98;57.66
50394;BME280;36308;46.312;25.288;2023-04-21T03:51:49;95657.16;;;8.94;57.91
50394;BME280;36308;46.312;25.288;2023-04-21T03:54:14;95663.06;;;8.90;58.16
50394;BME280;36308;46.312;25.288;2023-04-21T03:56:40;95658.19;;;8.87;57.68
50394;BME280;36308;46.312;25.288;2023-04-21T03:59:05;95665.19;;;8.88;57.86
50394;BME280;36308;46.312;25.288;2023-04-21T04:01:32;95665.66;;;8.85;58.47
50394;BME280;36308;46.312;25.288;2023-04-21T04:03:58;95659.19;;;8.81;58.50
50394;BME280;36308;46.312;25.288;2023-04-21T04:06:23;95647.91;;;8.74;58.52
50394;BME280;36308;46.312;25.288;2023-04-21T04:08:49;95657.03;;;8.78;59.13
50394;BME280;36308;46.312;25.288;2023-04-21T04:11:14;95661.84;;;8.76;59.12
50394;BME280;36308;46.312;25.288;2023-04-21T04:13:40;95661.03;;;8.76;58.59
50394;BME280;36308;46.312;25.288;2023-04-21T04:16:06;95663.97;;;8.74;58.62
50394;BME280;36308;46.312;25.288;2023-04-21T04:18:31;95667.72;;;8.73;58.76
50394;BME280;36308;46.312;25.288;2023-04-21T04:20:57;95676.81;;;8.72;59.41
50394;BME280;36308;46.312;25.288;2023-04-21T04:23:22;95678.44;;;8.73;59.15
50394;BME280;36308;46.312;25.288;2023-04-21T04:25:48;95675.19;;;8.71;59.44
50394;BME280;36308;46.312;25.288;2023-04-21T04:28:13;95676.59;;;8.74;59.67
50394;BME280;36308;46.312;25.288;2023-04-21T04:30:40;95681.06;;;8.68;59.21
50394;BME280;36308;46.312;25.288;2023-04-21T04:33:05;95679.75;;;8.70;59.68
50394;BME280;36308;46.312;25.288;2023-04-21T04:35:31;95689.66;;;8.70;60.60
50394;BME280;36308;46.312;25.288;2023-04-21T04:37:57;95681.06;;;8.68;61.11
50394;BME280;36308;46.312;25.288;2023-04-21T04:40:23;95678.34;;;8.63;60.84
50394;BME280;36308;46.312;25.288;2023-04-21T04:42:49;95683.66;;;8.58;61.74
50394;BME280;36308;46.312;25.288;2023-04-21T04:45:15;95689.25;;;8.56;62.76
50394;BME280;36308;46.312;25.288;2023-04-21T04:47:41;95686.25;;;8.47;63.08
50394;BME280;36308;46.312;25.288;2023-04-21T04:50:07;95674.88;;;8.40;63.63
50394;BME280;36308;46.312;25.288;2023-04-21T04:52:33;95686.09;;;8.37;63.58
50394;BME280;36308;46.312;25.288;2023-04-21T04:54:59;95687.16;;;8.36;63.78
50394;BME280;36308;46.312;25.288;2023-04-21T04:57:24;95680.75;;;8.37;63.53
50394;BME280;36308;46.312;25.288;2023-04-21T04:59:54;95693.06;;;8.38;63.86
50394;BME280;36308;46.312;25.288;2023-04-21T05:02:20;95689.34;;;8.39;63.74
50394;BME280;36308;46.312;25.288;2023-04-21T05:04:48;95687.25;;;8.41;64.32
50394;BME280;36308;46.312;25.288;2023-04-21T05:07:13;95679.22;;;8.41;64.32
50394;BME280;36308;46.312;25.288;2023-04-21T05:09:39;95676.28;;;8.43;63.78
50394;BME280;36308;46.312;25.288;2023-04-21T05:12:04;95671.47;;;8.45;64.40
50394;BME280;36308;46.312;25.288;2023-04-21T05:14:30;95678.50;;;8.51;64.11
50394;BME280;36308;46.312;25.288;2023-04-21T05:16:55;95688.94;;;8.53;64.51
50394;BME280;36308;46.312;25.288;2023-04-21T05:19:21;95687.38;;;8.57;64.31
50394;BME280;36308;46.312;25.288;2023-04-21T05:21:46;95677.19;;;8.54;64.43
50394;BME280;36308;46.312;25.288;2023-04-21T05:24:12;95688.00;;;8.64;64.86
50394;BME280;36308;46.312;25.288;2023-04-21T05:26:37;95687.47;;;8.67;64.66
50394;BME280;36308;46.312;25.288;2023-04-21T05:29:03;95690.22;;;8.72;64.27
50394;BME280;36308;46.312;25.288;2023-04-21T05:31:28;95687.56;;;8.77;64.66
50394;BME280;36308;46.312;25.288;2023-04-21T05:33:54;95690.25;;;8.77;64.33
50394;BME280;36308;46.312;25.288;2023-04-21T05:36:19;95689.50;;;8.82;64.52
50394;BME280;36308;46.312;25.288;2023-04-21T05:38:47;95695.72;;;8.87;64.81
50394;BME280;36308;46.312;25.288;2023-04-21T05:41:12;95692.53;;;8.90;64.17
50394;BME280;36308;46.312;25.288;2023-04-21T05:43:38;95686.41;;;8.95;64.21
50394;BME280;36308;46.312;25.288;2023-04-21T05:46:08;95687.50;;;8.99;64.18
50394;BME280;36308;46.312;25.288;2023-04-21T05:48:35;95691.84;;;9.05;63.97
50394;BME280;36308;46.312;25.288;2023-04-21T05:51:08;95689.19;;;9.10;63.23
50394;BME280;36308;46.312;25.288;2023-04-21T05:53:34;95694.88;;;9.14;63.70
50394;BME280;36308;46.312;25.288;2023-04-21T05:56:00;95695.16;;;9.18;62.92
50394;BME280;36308;46.312;25.288;2023-04-21T05:58:25;95704.03;;;9.23;62.68
50394;BME280;36308;46.312;25.288;2023-04-21T06:00:51;95703.00;;;9.29;62.85
50394;BME280;36308;46.312;25.288;2023-04-21T06:03:16;95707.91;;;9.38;61.50
50394;BME280;36308;46.312;25.288;2023-04-21T06:05:41;95697.22;;;9.43;61.51
50394;BME280;36308;46.312;25.288;2023-04-21T06:08:07;95703.16;;;9.50;60.97
50394;BME280;36308;46.312;25.288;2023-04-21T06:10:34;95703.22;;;9.60;61.11
50394;BME280;36308;46.312;25.288;2023-04-21T06:12:59;95698.16;;;9.69;60.61
50394;BME280;36308;46.312;25.288;2023-04-21T06:15:25;95701.44;;;9.76;59.88
50394;BME280;36308;46.312;25.288;2023-04-21T06:17:54;95704.97;;;9.82;59.70
50394;BME280;36308;46.312;25.288;2023-04-21T06:20:20;95691.56;;;9.87;59.16
50394;BME280;36308;46.312;25.288;2023-04-21T06:22:45;95693.75;;;9.95;58.67
50394;BME280;36308;46.312;25.288;2023-04-21T06:25:11;95689.47;;;9.99;58.75
50394;BME280;36308;46.312;25.288;2023-04-21T06:27:36;95694.34;;;10.07;58.35
50394;BME280;36308;46.312;25.288;2023-04-21T06:30:02;95699.16;;;10.10;58.39
50394;BME280;36308;46.312;25.288;2023-04-21T06:32:27;95700.31;;;10.20;58.23
50394;BME280;36308;46.312;25.288;2023-04-21T06:34:59;95702.47;;;10.28;57.99
50394;BME280;36308;46.312;25.288;2023-04-21T06:37:24;95701.47;;;10.34;57.78
50394;BME280;36308;46.312;25.288;2023-04-21T06:39:50;95702.00;;;10.41;57.24
50394;BME280;36308;46.312;25.288;2023-04-21T06:42:15;95697.19;;;10.48;57.39
50394;BME280;36308;46.312;25.288;2023-04-21T06:44:41;95702.59;;;10.59;56.96
50394;BME280;36308;46.312;25.288;2023-04-21T06:47:06;95700.19;;;10.67;57.12
50394;BME280;36308;46.312;25.288;2023-04-21T06:49:32;95695.63;;;10.78;56.31
50394;BME280;36308;46.312;25.288;2023-04-21T06:51:58;95700.22;;;10.88;56.18
50394;BME280;36308;46.312;25.288;2023-04-21T06:54:24;95702.38;;;10.96;55.14
50394;BME280;36308;46.312;25.288;2023-04-21T06:56:49;95688.94;;;11.01;54.89
50394;BME280;36308;46.312;25.288;2023-04-21T06:59:15;95680.88;;;11.06;54.65
50394;BME280;36308;46.312;25.288;2023-04-21T07:01:41;95687.34;;;11.10;54.75
50394;BME280;36308;46.312;25.288;2023-04-21T07:04:06;95688.13;;;11.16;54.04
50394;BME280;36308;46.312;25.288;2023-04-21T07:06:32;95686.50;;;11.20;53.58
50394;BME280;36308;46.312;25.288;2023-04-21T07:08:57;95684.88;;;11.24;53.24
50394;BME280;36308;46.312;25.288;2023-04-21T07:11:23;95695.09;;;11.32;53.53
50394;BME280;36308;46.312;25.288;2023-04-21T07:13:48;95690.28;;;11.40;54.08
50394;BME280;36308;46.312;25.288;2023-04-21T07:16:14;95697.25;;;11.51;53.09
50394;BME280;36308;46.312;25.288;2023-04-21T07:18:39;95691.84;;;11.61;53.07
50394;BME280;36308;46.312;25.288;2023-04-21T07:21:06;95689.13;;;11.77;53.33
50394;BME280;36308;46.312;25.288;2023-04-21T07:23:31;95692.34;;;11.89;52.50
50394;BME280;36308;46.312;25.288;2023-04-21T07:25:58;95685.59;;;12.02;52.14
50394;BME280;36308;46.312;25.288;2023-04-21T07:28:23;95690.09;;;12.11;52.12
50394;BME280;36308;46.312;25.288;2023-04-21T07:30:49;95684.94;;;12.25;51.20
50394;BME280;36308;46.312;25.288;2023-04-21T07:33:14;95685.69;;;12.36;51.03
50394;BME280;36308;46.312;25.288;2023-04-21T07:35:40;95681.88;;;12.47;51.03
50394;BME280;36308;46.312;25.288;2023-04-21T07:38:06;95688.00;;;12.58;50.34
50394;BME280;36308;46.312;25.288;2023-04-21T07:40:31;95682.31;;;12.65;49.90
50394;BME280;36308;46.312;25.288;2023-04-21T07:42:57;95679.56;;;12.70;49.81
50394;BME280;36308;46.312;25.288;2023-04-21T07:45:23;95681.97;;;12.77;49.71
50394;BME280;36308;46.312;25.288;2023-04-21T07:47:49;95682.44;;;12.84;49.00
50394;BME280;36308;46.312;25.288;2023-04-21T07:50:14;95685.41;;;12.87;49.50
50394;BME280;36308;46.312;25.288;2023-04-21T07:52:40;95689.69;;;12.93;48.70
50394;BME280;36308;46.312;25.288;2023-04-21T07:55:06;95682.34;;;12.99;48.34
50394;BME280;36308;46.312;25.288;2023-04-21T07:57:31;95682.56;;;13.08;48.24
50394;BME280;36308;46.312;25.288;2023-04-21T07:59:59;95679.81;;;13.13;48.12
50394;BME280;36308;46.312;25.288;2023-04-21T08:02:24;95683.53;;;13.22;48.11
50394;BME280;36308;46.312;25.288;2023-04-21T08:04:49;95675.91;;;13.29;47.52
50394;BME280;36308;46.312;25.288;2023-04-21T08:07:15;95679.63;;;13.39;47.36
50394;BME280;36308;46.312;25.288;2023-04-21T08:09:40;95685.50;;;13.46;47.32
50394;BME280;36308;46.312;25.288;2023-04-21T08:12:06;95679.75;;;13.52;46.75
50394;BME280;36308;46.312;25.288;2023-04-21T08:14:31;95681.03;;;13.60;46.45
50394;BME280;36308;46.312;25.288;2023-04-21T08:16:58;95678.28;;;13.65;45.96
50394;BME280;36308;46.312;25.288;2023-04-21T08:19:24;95683.38;;;13.72;45.56
50394;BME280;36308;46.312;25.288;2023-04-21T08:21:49;95687.03;;;13.81;45.45
50394;BME280;36308;46.312;25.288;2023-04-21T08:24:15;95678.06;;;13.86;45.21
50394;BME280;36308;46.312;25.288;2023-04-21T08:26:40;95676.91;;;13.92;44.49
50394;BME280;36308;46.312;25.288;2023-04-21T08:29:06;95677.69;;;13.98;44.75
50394;BME280;36308;46.312;25.288;2023-04-21T08:31:34;95670.84;;;14.05;44.99
50394;BME280;36308;46.312;25.288;2023-04-21T08:34:01;95666.69;;;14.13;44.77
50394;BME280;36308;46.312;25.288;2023-04-21T08:36:27;95667.88;;;14.26;45.07
50394;BME280;36308;46.312;25.288;2023-04-21T08:38:52;95670.09;;;14.43;45.25
50394;BME280;36308;46.312;25.288;2023-04-21T08:41:18;95659.59;;;14.60;44.40
50394;BME280;36308;46.312;25.288;2023-04-21T08:43:44;95668.03;;;14.78;44.18
50394;BME280;36308;46.312;25.288;2023-04-21T08:46:11;95661.59;;;14.92;43.77
50394;BME280;36308;46.312;25.288;2023-04-21T08:48:37;95646.78;;;15.04;43.05
50394;BME280;36308;46.312;25.288;2023-04-21T08:51:07;95647.22;;;15.11;42.48
50394;BME280;36308;46.312;25.288;2023-04-21T08:53:36;95661.47;;;15.16;42.43
50394;BME280;36308;46.312;25.288;2023-04-21T08:56:03;95655.19;;;15.21;42.29
50394;BME280;36308;46.312;25.288;2023-04-21T08:58:28;95644.25;;;15.26;41.91
50394;BME280;36308;46.312;25.288;2023-04-21T09:00:54;95637.34;;;15.34;42.66
50394;BME280;36308;46.312;25.288;2023-04-21T09:03:26;95647.69;;;15.46;42.30
50394;BME280;36308;46.312;25.288;2023-04-21T09:06:00;95638.28;;;15.57;41.70
50394;BME280;36308;46.312;25.288;2023-04-21T09:08:26;95638.63;;;15.69;41.22
50394;BME280;36308;46.312;25.288;2023-04-21T09:10:52;95634.91;;;15.79;41.49
50394;BME280;36308;46.312;25.288;2023-04-21T09:13:18;95636.84;;;15.92;41.15
50394;BME280;36308;46.312;25.288;2023-04-21T09:15:50;95632.03;;;16.03;40.87
50394;BME280;36308;46.312;25.288;2023-04-21T09:18:20;95628.31;;;16.13;40.89
50394;BME280;36308;46.312;25.288;2023-04-21T09:20:48;95630.47;;;16.25;40.70
50394;BME280;36308;46.312;25.288;2023-04-21T09:23:14;95630.28;;;16.35;40.15
50394;BME280;36308;46.312;25.288;2023-04-21T09:25:43;95626.25;;;16.46;40.33
50394;BME280;36308;46.312;25.288;2023-04-21T09:28:11;95616.97;;;16.61;40.33
50394;BME280;36308;46.312;25.288;2023-04-21T09:30:38;95626.84;;;16.80;40.17
50394;BME280;36308;46.312;25.288;2023-04-21T09:33:05;95625.72;;;16.94;39.92
50394;BME280;36308;46.312;25.288;2023-04-21T09:35:35;95615.59;;;17.09;39.59
50394;BME280;36308;46.312;25.288;2023-04-21T09:38:09;95614.72;;;17.22;39.00
50394;BME280;36308;46.312;25.288;2023-04-21T09:40:35;95627.94;;;17.37;39.16
50394;BME280;36308;46.312;25.288;2023-04-21T09:43:01;95626.91;;;17.56;39.29
50394;BME280;36308;46.312;25.288;2023-04-21T09:45:45;95612.41;;;17.69;37.67
50394;BME280;36308;46.312;25.288;2023-04-21T09:48:12;95621.41;;;17.78;37.68
50394;BME280;36308;46.312;25.288;2023-04-21T09:50:41;95615.34;;;17.82;37.40
50394;BME280;36308;46.312;25.288;2023-04-21T09:53:10;95626.13;;;17.87;37.10
50394;BME280;36308;46.312;25.288;2023-04-21T09:55:40;95618.47;;;17.89;37.12
50394;BME280;36308;46.312;25.288;2023-04-21T09:58:07;95618.13;;;17.90;37.32
50394;BME280;36308;46.312;25.288;2023-04-21T10:00:34;95620.03;;;17.90;36.75
50394;BME280;36308;46.312;25.288;2023-04-21T10:03:04;95625.00;;;17.88;36.86
50394;BME280;36308;46.312;25.288;2023-04-21T10:05:35;95622.59;;;17.86;36.81
50394;BME280;36308;46.312;25.288;2023-04-21T10:08:01;95620.78;;;17.82;36.51
50394;BME280;36308;46.312;25.288;2023-04-21T10:10:28;95619.00;;;17.77;36.48
50394;BME280;36308;46.312;25.288;2023-04-21T10:12:56;95622.66;;;17.72;36.40
50394;BME280;36308;46.312;25.288;2023-04-21T10:15:38;95616.56;;;17.67;36.97
50394;BME280;36308;46.312;25.288;2023-04-21T10:20:53;95628.41;;;17.71;36.94
50394;BME280;36308;46.312;25.288;2023-04-21T10:25:51;95621.72;;;17.77;36.83
50394;BME280;36308;46.312;25.288;2023-04-21T10:28:19;95630.19;;;17.75;36.69
50394;BME280;36308;46.312;25.288;2023-04-21T10:30:45;95635.44;;;17.72;36.41
50394;BME280;36308;46.312;25.288;2023-04-21T10:33:10;95632.38;;;17.65;36.45
50394;BME280;36308;46.312;25.288;2023-04-21T10:36:01;95638.88;;;17.55;36.29
50394;BME280;36308;46.312;25.288;2023-04-21T10:38:39;95638.53;;;17.48;36.05
50394;BME280;36308;46.312;25.288;2023-04-21T10:41:30;95634.66;;;17.40;36.01
50394;BME280;36308;46.312;25.288;2023-04-21T10:44:10;95641.63;;;17.32;36.28
50394;BME280;36308;46.312;25.288;2023-04-21T10:55:09;95647.38;;;17.08;36.68
50394;BME280;36308;46.312;25.288;2023-04-21T10:57:12;95650.03;;;17.00;36.78
50394;BME280;36308;46.312;25.288;2023-04-21T10:59:38;95642.63;;;16.91;36.84
50394;BME280;36308;46.312;25.288;2023-04-21T11:02:05;95635.09;;;16.88;36.95
50394;BME280;36308;46.312;25.288;2023-04-21T11:04:31;95627.06;;;16.83;36.76
50394;BME280;36308;46.312;25.288;2023-04-21T11:07:10;95632.81;;;16.82;36.93
50394;BME280;36308;46.312;25.288;2023-04-21T11:09:37;95628.78;;;16.79;37.76
50394;BME280;36308;46.312;25.288;2023-04-21T11:12:06;95634.19;;;16.79;37.61
50394;BME280;36308;46.312;25.288;2023-04-21T11:14:33;95627.66;;;16.80;37.58
50394;BME280;36308;46.312;25.288;2023-04-21T11:17:18;95632.00;;;16.81;37.77
50394;BME280;36308;46.312;25.288;2023-04-21T11:19:54;95635.09;;;16.88;37.84
50394;BME280;36308;46.312;25.288;2023-04-21T11:22:23;95636.88;;;16.93;38.15
50394;BME280;36308;46.312;25.288;2023-04-21T11:24:52;95630.53;;;16.98;37.65
50394;BME280;36308;46.312;25.288;2023-04-21T11:27:18;95638.84;;;17.01;37.72
50394;BME280;36308;46.312;25.288;2023-04-21T11:29:45;95640.19;;;17.04;37.39
50394;BME280;36308;46.312;25.288;2023-04-21T11:32:11;95633.75;;;17.00;36.94
50394;BME280;36308;46.312;25.288;2023-04-21T11:34:37;95634.56;;;17.00;37.25
50394;BME280;36308;46.312;25.288;2023-04-21T11:37:06;95638.69;;;16.98;36.79
50394;BME280;36308;46.312;25.288;2023-04-21T11:39:31;95637.88;;;16.97;36.90
50394;BME280;36308;46.312;25.288;2023-04-21T11:41:57;95645.22;;;16.96;36.82
50394;BME280;36308;46.312;25.288;2023-04-21T11:46:59;95650.66;;;16.96;36.91
50394;BME280;36308;46.312;25.288;2023-04-21T11:49:25;95649.84;;;16.96;36.98
50394;BME280;36308;46.312;25.288;2023-04-21T11:51:54;95643.94;;;16.94;36.82
50394;BME280;36308;46.312;25.288;2023-04-21T11:54:21;95643.72;;;16.90;37.22
50394;BME280;36308;46.312;25.288;2023-04-21T11:56:48;95641.66;;;16.87;37.25
50394;BME280;36308;46.312;25.288;2023-04-21T11:59:16;95642.25;;;16.84;37.34
50394;BME280;36308;46.312;25.288;2023-04-21T12:01:50;95640.66;;;16.83;37.31
50394;BME280;36308;46.312;25.288;2023-04-21T12:04:21;95637.13;;;16.83;37.77
50394;BME280;36308;46.312;25.288;2023-04-21T12:06:58;95631.38;;;16.84;37.38
50394;BME280;36308;46.312;25.288;2023-04-21T12:09:25;95633.00;;;16.85;36.93
50394;BME280;36308;46.312;25.288;2023-04-21T12:11:52;95634.00;;;16.89;36.88
50394;BME280;36308;46.312;25.288;2023-04-21T12:14:20;95629.06;;;16.91;36.11
50394;BME280;36308;46.312;25.288;2023-04-21T12:16:52;95631.78;;;16.91;35.15
50394;BME280;36308;46.312;25.288;2023-04-21T12:21:59;95631.34;;;16.98;34.98
50394;BME280;36308;46.312;25.288;2023-04-21T12:24:24;95630.09;;;17.04;34.52
50394;BME280;36308;46.312;25.288;2023-04-21T12:26:50;95633.81;;;17.08;34.50
50394;BME280;36308;46.312;25.288;2023-04-21T12:29:16;95629.03;;;17.14;34.73
50394;BME280;36308;46.312;25.288;2023-04-21T12:31:41;95622.25;;;17.25;34.47
50394;BME280;36308;46.312;25.288;2023-04-21T12:34:07;95624.06;;;17.38;34.67
50394;BME280;36308;46.312;25.288;2023-04-21T12:36:33;95629.63;;;17.56;34.96
50394;BME280;36308;46.312;25.288;2023-04-21T12:38:59;95622.53;;;17.77;34.39
50394;BME280;36308;46.312;25.288;2023-04-21T12:41:24;95623.75;;;17.94;34.13
50394;BME280;36308;46.312;25.288;2023-04-21T12:43:49;95623.94;;;18.06;33.89
50394;BME280;36308;46.312;25.288;2023-04-21T12:46:16;95622.69;;;18.12;33.66
50394;BME280;36308;46.312;25.288;2023-04-21T12:48:41;95625.25;;;18.17;33.34
50394;BME280;36308;46.312;25.288;2023-04-21T12:51:07;95620.28;;;18.20;33.19
50394;BME280;36308;46.312;25.288;2023-04-21T12:53:32;95624.63;;;18.21;33.21
50394;BME280;36308;46.312;25.288;2023-04-21T12:55:58;95623.19;;;18.23;33.17
50394;BME280;36308;46.312;25.288;2023-04-21T12:58:23;95622.88;;;18.25;32.69
50394;BME280;36308;46.312;25.288;2023-04-21T13:00:49;95625.09;;;18.23;32.07
50394;BME280;36308;46.312;25.288;2023-04-21T13:03:15;95626.69;;;18.24;31.77
50394;BME280;36308;46.312;25.288;2023-04-21T13:05:41;95619.50;;;18.19;31.51
50394;BME280;36308;46.312;25.288;2023-04-21T13:08:08;95621.91;;;18.21;31.80
50394;BME280;36308;46.312;25.288;2023-04-21T13:10:33;95624.94;;;18.19;31.51
50394;BME280;36308;46.312;25.288;2023-04-21T13:12:59;95631.81;;;18.16;31.19